METAR Data
IDs: Format: Raw Decoded Include TAF

Data at: 2105 UTC 24 Mar 2019

KPRS 242055Z AUTO 27010G16KT 240V300 10SM CLR 29/M08 A3005 RMK AO2 T02901078
KPRS 242035Z AUTO 26006G14KT 220V300 10SM CLR 29/M07 A3006 RMK AO2 T02851072
KPRS 242015Z AUTO 20005KT 10SM CLR 27/M06 A3007 RMK AO2 T02741063
KPRS 241955Z AUTO 28004KT 10SM CLR 28/M06 A3008 RMK AO2 T02751062
KPRS 241935Z AUTO 20004KT 10SM CLR 28/M06 A3010 RMK AO2 T02771064
KPRS 241915Z AUTO 28005KT 10SM CLR 27/M06 A3011 RMK AO2 T02671059
KPRS 241855Z AUTO 25006KT 10SM CLR 26/M06 A3012 RMK AO2 T02611058
KPRS 241835Z AUTO 33004KT 10SM CLR 26/M06 A3012 RMK AO2 T02581058
KPRS 241815Z AUTO 31005KT 270V350 10SM CLR 25/M06 A3014 RMK AO2 T02511062
KPRS 241755Z AUTO 22005KT 10SM CLR 24/M06 A3015 RMK AO2 T02421062 10243 20094
KPRS 241735Z AUTO 26006KT 10SM CLR 24/M07 A3015 RMK AO2 T02401066
KPRS 241715Z AUTO 23006KT 10SM CLR 24/M07 A3015 RMK AO2 T02351068
KPRS 241655Z AUTO 24006KT 10SM CLR 22/M07 A3015 RMK AO2 T02241071
KPRS 241635Z AUTO 24003KT 10SM CLR 22/M07 A3016 RMK AO2 T02151072
KPRS 241615Z AUTO 21003KT 10SM CLR 21/M07 A3016 RMK AO2 T02081075
KPRS 241555Z AUTO 00000KT 10SM CLR 20/M07 A3016 RMK AO2 T02001073
KPRS 241535Z AUTO 00000KT 10SM CLR 19/M07 A3016 RMK AO2 T01911075
KPRS 241515Z AUTO 00000KT 10SM CLR 18/M07 A3015 RMK AO2 T01821074
KPRS 241455Z AUTO 00000KT 10SM CLR 16/M07 A3015 RMK AO2 T01641075
KPRS 241435Z AUTO 00000KT 10SM CLR 16/M08 A3013 RMK AO2 T01551076
KPRS 241415Z AUTO 00000KT 10SM CLR 14/M07 A3013 RMK AO2 T01431073
KPRS 241355Z AUTO 04003KT 10SM CLR 12/M08 A3012 RMK AO2 T01181078
KPRS 241335Z AUTO 07003KT 10SM CLR 09/M09 A3011 RMK AO2 T00941086
KPRS 241315Z AUTO 35004KT 10SM CLR 10/M09 A3011 RMK AO2 T01021087
KPRS 241255Z AUTO 33003KT 10SM CLR 10/M09 A3010 RMK AO2 T00951087
KPRS 241235Z AUTO 00000KT 10SM CLR 11/M09 A3009 RMK AO2 T01111087
KPRS 241215Z AUTO 00000KT 10SM CLR 10/M09 A3008 RMK AO2 T01001089
KPRS 241155Z AUTO 00000KT 10SM CLR 09/M09 A3007 RMK AO2 T00931089 10182 20091
KPRS 241135Z AUTO 00000KT 10SM CLR 10/M09 A3007 RMK AO2 T00951094
KPRS 241115Z AUTO 00000KT 10SM CLR 12/M09 A3006 RMK AO2 T01171086
KPRS 241055Z AUTO 00000KT 10SM CLR 12/M09 A3005 RMK AO2 T01161086
KPRS 241035Z AUTO 00000KT 10SM CLR 12/M09 A3006 RMK AO2 T01161087
KPRS 241015Z AUTO 00000KT 10SM CLR 13/M08 A3005 RMK AO2 T01301084
KPRS 240955Z AUTO 00000KT 10SM CLR 13/M08 A3005 RMK AO2 T01271084
KPRS 240935Z AUTO 15004KT 10SM CLR 14/M08 A3005 RMK AO2 T01351085
KPRS 240915Z AUTO 05003KT 10SM CLR 14/M08 A3004 RMK AO2 T01441078
KPRS 240855Z AUTO 30006KT 10SM CLR 15/M08 A3004 RMK AO2 T01491078
KPRS 240835Z AUTO 32006KT 10SM CLR 15/M08 A3004 RMK AO2 T01531076
KPRS 240815Z AUTO 32007KT 300V360 10SM CLR 16/M08 A3004 RMK AO2 T01571077
KPRS 240755Z AUTO 35008KT 10SM CLR 16/M07 A3004 RMK AO2 T01621075
KPRS 240735Z AUTO 35007KT 10SM CLR 16/M08 A3004 RMK AO2 T01641076
KPRS 240715Z AUTO 35007KT 10SM CLR 17/M08 A3004 RMK AO2 T01671076
KPRS 240655Z AUTO 31004KT 10SM CLR 17/M08 A3004 RMK AO2 T01651077
KPRS 240635Z AUTO 34008KT 300V360 10SM CLR 17/M08 A3004 RMK AO2 T01721078
KPRS 240615Z AUTO 35010KT 10SM CLR 18/M08 A3003 RMK AO2 T01791077
KPRS 240555Z AUTO 35009KT 10SM CLR 18/M08 A3003 RMK AO2 T01841077 10274 20176 402780104
KPRS 240535Z AUTO 36009KT 10SM CLR 19/M08 A3003 RMK AO2 T01921077
KPRS 240515Z AUTO 36008KT 10SM CLR 20/M08 A3003 RMK AO2 T01951081
KPRS 240455Z AUTO 35008KT 10SM CLR 18/M08 A3003 RMK AO2 T01831083
KPRS 240435Z AUTO 01005KT 10SM CLR 18/M08 A3003 RMK AO2 T01761085
KPRS 240415Z AUTO 36007KT 10SM CLR 20/M08 A3002 RMK AO2 T01961083
KPRS 240355Z AUTO 35009KT 10SM CLR 20/M08 A3002 RMK AO2 T01961082
KPRS 240335Z AUTO 35008KT 10SM CLR 20/M08 A3001 RMK AO2 T02001083
KPRS 240315Z AUTO 35007KT 310V010 10SM CLR 20/M09 A3000 RMK AO2 T01951086
KPRS 240255Z AUTO 00000KT 10SM CLR 22/M08 A3000 RMK AO2 T02231082
KPRS 240235Z AUTO 04003KT 10SM CLR 22/M08 A3000 RMK AO2 T02231082
KPRS 240215Z AUTO 06003KT 10SM CLR 23/M08 A3000 RMK AO2 T02311080
KPRS 240155Z AUTO 07003KT 10SM CLR 23/M08 A2999 RMK AO2 T02341080
KPRS 240135Z AUTO 00000KT 10SM CLR 25/M08 A2999 RMK AO2 T02451080
KPRS 240115Z AUTO 16003KT 10SM CLR 25/M08 A2999 RMK AO2 T02501080
KPRS 240055Z AUTO 00000KT 10SM CLR 26/M07 A2999 RMK AO2 T02631075
KPRS 240035Z AUTO 23005KT 10SM CLR 27/M08 A2999 RMK AO2 T02671078
KPRS 240015Z AUTO 20003KT 10SM CLR 27/M07 A2999 RMK AO2 T02711073
KPRS 232355Z AUTO 00000KT 10SM CLR 27/M07 A2999 RMK AO2 T02711073 10278 20233
KPRS 232335Z AUTO 27004KT 10SM CLR 27/M07 A3000 RMK AO2 T02721075
KPRS 232315Z AUTO 23006KT 10SM CLR 28/M07 A3000 RMK AO2 T02751075
KPRS 232255Z AUTO 20004KT 10SM CLR 27/M07 A3000 RMK AO2 T02731075
KPRS 232235Z AUTO 26003G16KT 10SM CLR 27/M08 A3001 RMK AO2 T02691077
KPRS 232215Z AUTO 21008G14KT 10SM CLR 27/M08 A3002 RMK AO2 T02711078
KPRS 232155Z AUTO 23006G15KT 10SM CLR 28/M08 A3002 RMK AO2 T02761076
KPRS 232135Z AUTO 24008G16KT 10SM CLR 27/M07 A3003 RMK AO2 T02681073
KPRS 232115Z AUTO 21008KT 10SM CLR 27/M07 A3003 RMK AO2 T02681070
KPRS 232055Z AUTO 19009G14KT 10SM CLR 26/M06 A3004 RMK AO2 T02601060
KPRS 232035Z AUTO 22008G14KT 10SM CLR 26/M06 A3005 RMK AO2 T02581062
KPRS 232015Z AUTO 20006KT 10SM CLR 26/M06 A3005 RMK AO2 T02611061
KPRS 231955Z AUTO 27007G14KT 10SM CLR 26/M06 A3005 RMK AO2 T02621058
KPRS 231935Z AUTO 19010G14KT 10SM CLR 25/M06 A3006 RMK AO2 T02541056
KPRS 231915Z AUTO 25007G15KT 10SM CLR 25/M06 A3007 RMK AO2 T02501060
KPRS 231855Z AUTO 21005KT 10SM CLR 24/M06 A3009 RMK AO2 T02401059
KPRS 231835Z AUTO 27008KT 10SM CLR 25/M06 A3010 RMK AO2 T02461057
KPRS 231815Z AUTO 23005KT 10SM CLR 24/M06 A3011 RMK AO2 T02361061
KPRS 231755Z AUTO 17005KT 10SM CLR 23/M06 A3012 RMK AO2 T02341062 10236 20112
KPRS 231735Z AUTO 25005KT 10SM CLR 23/M06 A3012 RMK AO2 T02311062
KPRS 231715Z AUTO 21005KT 10SM CLR 23/M06 A3012 RMK AO2 T02261065
KPRS 231655Z AUTO 00000KT 10SM CLR 22/M07 A3013 RMK AO2 T02151066
KPRS 231635Z AUTO 22003KT 10SM CLR 21/M06 A3014 RMK AO2 T02091059
KPRS 231615Z AUTO 21004KT 10SM CLR 20/M05 A3015 RMK AO2 T02001055
KPRS 231555Z AUTO 00000KT 10SM CLR 19/M06 A3015 RMK AO2 T01861057
KPRS 231535Z AUTO 23003KT 10SM CLR 18/M06 A3014 RMK AO2 T01801058
KPRS 231515Z AUTO 24003KT 10SM CLR 18/M06 A3014 RMK AO2 T01751060
KPRS 231455Z AUTO 00000KT 10SM CLR 17/M06 A3014 RMK AO2 T01651061
KPRS 231435Z AUTO 00000KT 10SM CLR 16/M06 A3013 RMK AO2 T01641061
KPRS 231415Z AUTO 33003KT 10SM CLR 15/M06 A3012 RMK AO2 T01531062
KPRS 231355Z AUTO 34004KT 10SM CLR 14/M07 A3011 RMK AO2 T01361066
KPRS 231335Z AUTO 35005KT 10SM CLR 13/M07 A3010 RMK AO2 T01251069
KPRS 231315Z AUTO 35008KT 10SM CLR 12/M07 A3010 RMK AO2 T01161070
KPRS 231255Z AUTO 35007KT 10SM CLR 11/M07 A3009 RMK AO2 T01131071
KPRS 231235Z AUTO 34006KT 10SM CLR 12/M07 A3007 RMK AO2 T01151071
KPRS 231215Z AUTO 34007KT 10SM CLR 12/M07 A3007 RMK AO2 T01181071
KPRS 231155Z AUTO 33008KT 10SM CLR 12/M07 A3006 RMK AO2 T01201071 10206 20104
KPRS 231135Z AUTO 33007KT 10SM CLR 11/M07 A3006 RMK AO2 T01121075
KPRS 231115Z AUTO 34003KT 10SM CLR 12/M07 A3005 RMK AO2 T01191073
KPRS 231055Z AUTO 00000KT 10SM CLR 11/M07 A3005 RMK AO2 T01121075
KPRS 231035Z AUTO 31008KT 10SM CLR 13/M07 A3004 RMK AO2 T01271073
KPRS 231015Z AUTO 34003KT 10SM CLR 14/M07 A3004 RMK AO2 T01411072
KPRS 230955Z AUTO 01006KT 10SM CLR 13/M07 A3004 RMK AO2 T01311072
KPRS 230935Z AUTO 36005KT 10SM CLR 13/M07 A3004 RMK AO2 T01331074
KPRS 230915Z AUTO 02005KT 10SM CLR 14/M07 A3004 RMK AO2 T01391070